Time;durP1;ratioP1;P1;durP2;ratioP2;P2;SDS_P1;SDS_P2;PMS_P1;PMS_P2;Temp;Humidity;BMP_temperature;BMP_pressure;BME280_temperature;BME280_humidity;BME280_pressure;Samples;Min_cycle;Max_cycle;Signal;HPM_P1;HPM_P2
2022/04/12 00:00:41;;;;;;;1.40;1.25;;;17.00;51.80;;;;;;5135138;27;20224;-69
2022/04/12 00:03:07;;;;;;;1.25;1.15;;;17.10;51.90;;;;;;5134158;27;20655;-69
2022/04/12 00:05:33;;;;;;;1.55;1.40;;;17.00;51.80;;;;;;5135091;27;20227;-69
2022/04/12 00:07:59;;;;;;;1.70;1.40;;;17.00;51.80;;;;;;5135340;27;20264;-68
2022/04/12 00:10:24;;;;;;;1.23;1.13;;;17.00;51.80;;;;;;5134136;27;20397;-68
2022/04/12 00:12:50;;;;;;;2.08;1.50;;;17.00;51.80;;;;;;5135087;27;20169;-70
2022/04/12 00:15:15;;;;;;;1.50;1.38;;;17.00;51.90;;;;;;5134599;27;20611;-69
2022/04/12 00:20:26;;;;;;;1.50;1.40;;;17.00;51.90;;;;;;5134618;27;20199;-69
2022/04/12 00:22:55;;;;;;;1.23;1.00;;;16.90;51.90;;;;;;5134831;27;20179;-69
2022/04/12 00:25:22;;;;;;;1.77;1.60;;;16.90;51.80;;;;;;5133733;27;20176;-68
2022/04/12 00:27:48;;;;;;;1.40;1.30;;;16.90;51.80;;;;;;5134829;27;20199;-69
2022/04/12 00:30:13;;;;;;;1.25;1.20;;;16.90;51.90;;;;;;5133693;27;20603;-69
2022/04/12 00:32:39;;;;;;;1.63;1.35;;;16.90;51.90;;;;;;5134591;27;20646;-68
2022/04/12 00:35:05;;;;;;;2.30;1.55;;;16.90;51.90;;;;;;5134815;27;20176;-69
2022/04/12 00:37:31;;;;;;;1.30;1.20;;;16.90;51.90;;;;;;5133936;27;20578;-68
2022/04/12 00:39:56;;;;;;;1.17;1.08;;;16.90;51.90;;;;;;5134363;27;20240;-69
2022/04/12 00:42:25;;;;;;;1.60;1.10;;;16.90;51.90;;;;;;5134175;27;20205;-70
2022/04/12 00:44:50;;;;;;;1.20;1.20;;;16.90;51.90;;;;;;5133476;27;20176;-69
2022/04/12 00:47:16;;;;;;;1.33;1.30;;;16.80;51.90;;;;;;5133867;27;20622;-69
2022/04/12 00:49:41;;;;;;;1.30;1.20;;;16.90;51.90;;;;;;5133992;27;20568;-68
2022/04/12 00:52:07;;;;;;;1.00;1.00;;;16.80;51.90;;;;;;5133246;27;20168;-68
2022/04/12 00:54:33;;;;;;;1.58;1.45;;;16.80;52.00;;;;;;5134380;27;20169;-68
2022/04/12 00:56:59;;;;;;;1.55;1.45;;;16.80;52.00;;;;;;5134158;27;20183;-69
2022/04/12 00:59:25;;;;;;;1.30;1.20;;;16.80;52.60;;;;;;5132979;27;20364;-70
2022/04/12 01:01:51;;;;;;;1.38;1.20;;;16.80;52.00;;;;;;5133893;27;20240;-71
2022/04/12 01:04:16;;;;;;;1.50;1.40;;;16.80;52.00;;;;;;5133813;27;20559;-69
2022/04/12 01:06:42;;;;;;;1.58;1.48;;;16.80;52.00;;;;;;5133434;27;20679;-68
2022/04/12 01:09:09;;;;;;;1.25;1.23;;;16.80;52.00;;;;;;5133180;27;20228;-68
2022/04/12 01:11:35;;;;;;;1.25;1.15;;;16.80;52.00;;;;;;5133946;27;20189;-69
2022/04/12 01:14:01;;;;;;;1.55;1.45;;;16.80;52.00;;;;;;5114754;27;20172;-68
2022/04/12 01:16:26;;;;;;;1.23;1.17;;;16.80;52.00;;;;;;5133478;27;20188;-69
2022/04/12 01:18:52;;;;;;;1.40;1.30;;;16.80;52.00;;;;;;5134098;27;20515;-69
2022/04/12 01:21:17;;;;;;;1.20;1.20;;;16.80;52.00;;;;;;5132719;27;20638;-69
2022/04/12 01:23:49;;;;;;;1.10;1.10;;;16.70;52.00;;;;;;5115492;27;20635;-69
2022/04/12 01:26:14;;;;;;;1.73;1.15;;;16.70;52.00;;;;;;5133342;27;20176;-69
2022/04/12 01:28:44;;;;;;;1.42;1.33;;;16.70;52.00;;;;;;5132700;27;20168;-70
2022/04/12 01:31:09;;;;;;;1.70;1.60;;;16.70;52.00;;;;;;5132990;27;20794;-68
2022/04/12 01:33:35;;;;;;;1.23;1.13;;;16.70;52.00;;;;;;5132938;27;20214;-69
2022/04/12 01:36:00;;;;;;;1.17;1.17;;;16.70;52.00;;;;;;5133474;27;20181;-69
2022/04/12 01:38:26;;;;;;;1.40;1.30;;;16.70;52.00;;;;;;5133137;27;20184;-68
2022/04/12 01:40:51;;;;;;;1.50;1.40;;;16.70;52.00;;;;;;5132770;27;20845;-70
2022/04/12 01:43:17;;;;;;;1.65;1.30;;;16.70;52.00;;;;;;5132811;27;20188;-69
2022/04/12 01:45:42;;;;;;;1.23;1.15;;;16.70;52.00;;;;;;5133526;27;20538;-70
2022/04/12 01:48:08;;;;;;;1.52;1.42;;;16.70;52.00;;;;;;5131993;27;20638;-70
2022/04/12 01:50:33;;;;;;;1.52;1.42;;;16.70;52.00;;;;;;5133185;27;20214;-69
2022/04/12 01:52:59;;;;;;;1.35;1.23;;;16.70;52.00;;;;;;5133243;27;20164;-69
2022/04/12 01:55:24;;;;;;;1.35;1.20;;;16.60;51.90;;;;;;5113725;27;20307;-68
2022/04/12 01:57:51;;;;;;;1.30;1.27;;;16.70;52.00;;;;;;5133016;27;20177;-72
2022/04/12 02:00:16;;;;;;;1.52;1.40;;;16.60;52.00;;;;;;5132695;27;20200;-69
2022/04/12 02:02:42;;;;;;;1.20;1.10;;;16.70;52.00;;;;;;5132542;27;20204;-69
2022/04/12 02:05:08;;;;;;;1.40;1.30;;;16.60;52.00;;;;;;5132750;27;20217;-68
2022/04/12 02:07:33;;;;;;;1.40;1.30;;;16.60;52.00;;;;;;5133326;27;20213;-69
2022/04/12 02:09:59;;;;;;;1.20;1.20;;;16.60;52.00;;;;;;5132668;27;20298;-69
2022/04/12 02:12:24;;;;;;;1.75;1.38;;;16.60;52.00;;;;;;5133093;27;20184;-69
2022/04/12 02:14:50;;;;;;;1.50;1.40;;;16.60;52.00;;;;;;5133376;27;20165;-70
2022/04/12 02:17:15;;;;;;;1.92;1.63;;;16.60;52.00;;;;;;5132430;27;20252;-70
2022/04/12 02:19:44;;;;;;;1.00;1.00;;;16.60;52.00;;;;;;5133132;27;20172;-69
2022/04/12 02:22:10;;;;;;;1.45;1.20;;;16.60;52.00;;;;;;5132347;27;20194;-70
2022/04/12 02:24:35;;;;;;;1.40;1.30;;;16.60;52.00;;;;;;5132364;27;20176;-69
2022/04/12 02:27:03;;;;;;;1.00;1.00;;;16.60;52.00;;;;;;5132786;28;20173;-69
2022/04/12 02:29:29;;;;;;;1.48;1.27;;;16.60;52.00;;;;;;5131715;28;20205;-69
2022/04/12 02:31:54;;;;;;;1.80;1.70;;;16.50;52.00;;;;;;5132231;28;20752;-69
2022/04/12 02:34:20;;;;;;;1.45;1.35;;;16.50;52.00;;;;;;5132573;27;20168;-70
2022/04/12 02:36:47;;;;;;;1.50;1.35;;;16.50;52.00;;;;;;5132923;28;20168;-69
2022/04/12 02:39:12;;;;;;;1.40;1.30;;;16.50;52.00;;;;;;5132070;28;20320;-69
2022/04/12 02:41:38;;;;;;;1.20;1.10;;;16.50;52.10;;;;;;5132618;27;20203;-69
2022/04/12 02:44:03;;;;;;;1.25;1.15;;;16.60;52.10;;;;;;5131812;28;20214;-70
2022/04/12 02:46:29;;;;;;;1.90;1.40;;;16.50;52.00;;;;;;5130127;28;20188;-70
2022/04/12 02:48:55;;;;;;;1.50;1.40;;;16.50;52.00;;;;;;5132760;27;20517;-69
2022/04/12 02:51:20;;;;;;;1.00;1.00;;;16.50;52.10;;;;;;5131567;27;20243;-69
2022/04/12 02:53:45;;;;;;;1.30;1.20;;;16.50;52.10;;;;;;5132523;28;20164;-69
2022/04/12 02:56:12;;;;;;;1.40;1.30;;;16.50;52.00;;;;;;5132247;27;20529;-69
2022/04/12 02:58:37;;;;;;;1.42;1.23;;;16.50;52.10;;;;;;5131712;28;20298;-70
2022/04/12 03:01:03;;;;;;;1.13;1.13;;;16.50;52.10;;;;;;5132264;27;20220;-71
2022/04/12 03:03:28;;;;;;;1.60;1.50;;;16.50;52.10;;;;;;5132145;28;20521;-71
2022/04/12 03:05:54;;;;;;;1.40;1.30;;;16.50;52.10;;;;;;5131677;27;20547;-70
2022/04/12 03:08:19;;;;;;;1.40;1.30;;;16.50;52.10;;;;;;5132224;28;20177;-70
2022/04/12 03:10:45;;;;;;;1.35;1.25;;;16.50;52.10;;;;;;5131867;27;20217;-69
2022/04/12 03:13:10;;;;;;;1.60;1.50;;;16.50;52.20;;;;;;5131478;28;20180;-69
2022/04/12 03:15:36;;;;;;;1.13;1.02;;;16.50;52.10;;;;;;5132585;28;20177;-70
2022/04/12 03:18:01;;;;;;;1.10;1.10;;;16.50;52.20;;;;;;5132123;28;20191;-70
2022/04/12 03:20:27;;;;;;;1.60;1.50;;;16.40;52.10;;;;;;5131180;28;20221;-70
2022/04/12 03:22:52;;;;;;;1.48;1.38;;;16.40;52.20;;;;;;5132284;28;20168;-69
2022/04/12 03:25:18;;;;;;;1.52;1.42;;;16.40;52.10;;;;;;5131560;28;20180;-69
2022/04/12 03:27:43;;;;;;;1.95;1.30;;;16.40;52.20;;;;;;5131442;28;20177;-71
2022/04/12 03:30:09;;;;;;;1.60;1.50;;;16.40;52.20;;;;;;5131126;28;20316;-69
2022/04/12 03:32:35;;;;;;;1.80;1.70;;;16.40;52.20;;;;;;5134430;27;20229;-69
2022/04/12 03:35:00;;;;;;;1.50;1.40;;;16.40;52.20;;;;;;5135493;27;20180;-69
2022/04/12 03:37:26;;;;;;;1.38;1.38;;;16.40;52.20;;;;;;5135650;27;20180;-69
2022/04/12 03:39:51;;;;;;;1.45;1.35;;;16.40;52.30;;;;;;5135876;27;20643;-69
2022/04/12 03:42:18;;;;;;;1.40;1.30;;;16.40;52.30;;;;;;5134852;27;20172;-69
2022/04/12 03:44:47;;;;;;;1.10;1.10;;;16.30;52.30;;;;;;5135838;27;20255;-69
2022/04/12 03:47:12;;;;;;;1.50;1.40;;;16.40;52.30;;;;;;5134799;27;20169;-69
2022/04/12 03:49:38;;;;;;;1.27;1.27;;;16.40;52.30;;;;;;5135594;27;20264;-69
2022/04/12 03:52:04;;;;;;;1.70;1.35;;;16.30;52.20;;;;;;5135500;27;20210;-68
2022/04/12 03:54:29;;;;;;;1.67;1.58;;;16.30;52.20;;;;;;5134540;27;20300;-69
2022/04/12 03:56:55;;;;;;;1.65;1.55;;;16.30;52.20;;;;;;5135563;27;20252;-70
2022/04/12 03:59:20;;;;;;;1.73;1.63;;;16.30;52.30;;;;;;5135294;27;20487;-70
2022/04/12 04:01:46;;;;;;;1.10;1.10;;;16.30;52.20;;;;;;5134494;27;20284;-71
2022/04/12 04:04:12;;;;;;;1.70;1.60;;;16.30;52.20;;;;;;5134928;27;20275;-70
2022/04/12 04:06:37;;;;;;;1.65;1.55;;;16.30;52.20;;;;;;5135506;27;20367;-69
2022/04/12 04:09:03;;;;;;;1.58;1.48;;;16.30;52.30;;;;;;5134499;27;20192;-69
2022/04/12 04:11:28;;;;;;;1.70;1.60;;;16.30;52.30;;;;;;5134873;27;20173;-69
2022/04/12 04:13:55;;;;;;;1.73;1.50;;;16.30;52.30;;;;;;5135183;27;20220;-72
2022/04/12 04:16:20;;;;;;;2.10;1.50;;;16.30;52.30;;;;;;5134355;27;20187;-70
2022/04/12 04:18:46;;;;;;;1.38;1.27;;;16.30;52.30;;;;;;5134914;27;20177;-72
2022/04/12 04:21:11;;;;;;;1.80;1.70;;;16.30;52.30;;;;;;5134765;27;20160;-71
2022/04/12 04:23:37;;;;;;;1.75;1.65;;;16.30;52.30;;;;;;5134041;27;20172;-72
2022/04/12 04:26:02;;;;;;;1.33;1.25;;;16.20;52.30;;;;;;5134804;27;20569;-69
2022/04/12 04:28:30;;;;;;;1.65;1.55;;;16.30;52.30;;;;;;5134825;27;20200;-73
2022/04/12 04:30:56;;;;;;;1.30;1.20;;;16.20;52.30;;;;;;5134243;27;20219;-71
2022/04/12 04:33:21;;;;;;;1.27;1.20;;;16.20;52.40;;;;;;5134623;27;20168;-71
2022/04/12 04:35:47;;;;;;;1.77;1.67;;;16.20;52.30;;;;;;5134741;27;20187;-71
2022/04/12 04:38:13;;;;;;;2.65;1.40;;;16.20;52.90;;;;;;5133439;27;20215;-69
2022/04/12 04:40:38;;;;;;;1.50;1.40;;;16.20;52.30;;;;;;5134606;27;20200;-70
2022/04/12 04:43:04;;;;;;;1.77;1.33;;;16.20;52.30;;;;;;5134087;27;20222;-70
2022/04/12 04:45:29;;;;;;;1.52;1.35;;;16.20;52.30;;;;;;5133399;27;20532;-69
2022/04/12 04:47:56;;;;;;;1.70;1.60;;;16.20;52.30;;;;;;5134867;27;20594;-71
2022/04/12 04:50:23;;;;;;;1.50;1.40;;;16.20;52.30;;;;;;5134117;27;20533;-69
2022/04/12 04:52:49;;;;;;;1.35;1.25;;;16.20;52.30;;;;;;5133620;27;20771;-70
2022/04/12 04:55:15;;;;;;;1.73;1.63;;;16.20;52.40;;;;;;5133999;27;20229;-69
2022/04/12 04:57:41;;;;;;;1.80;1.70;;;16.20;52.40;;;;;;5133846;27;20181;-72
2022/04/12 05:00:07;;;;;;;1.73;1.60;;;16.20;52.40;;;;;;5133905;27;20172;-70
2022/04/12 05:02:34;;;;;;;2.58;1.98;;;16.20;52.30;;;;;;5134689;27;20180;-72
2022/04/12 05:05:03;;;;;;;1.60;1.50;;;16.20;52.30;;;;;;5133636;27;20200;-72
2022/04/12 05:07:29;;;;;;;1.60;1.50;;;16.20;52.40;;;;;;5133865;27;20183;-70
2022/04/12 05:09:54;;;;;;;1.73;1.63;;;16.20;52.30;;;;;;5134506;27;20212;-71
2022/04/12 05:12:20;;;;;;;1.13;1.13;;;16.20;52.40;;;;;;5133000;27;20160;-71
2022/04/12 05:14:46;;;;;;;1.50;1.40;;;16.20;52.30;;;;;;5134075;27;20176;-71
2022/04/12 05:17:11;;;;;;;1.83;1.73;;;16.10;52.30;;;;;;5133819;27;20165;-70
2022/04/12 05:19:36;;;;;;;1.50;1.40;;;16.20;52.30;;;;;;5133209;27;20169;-72
2022/04/12 05:22:02;;;;;;;1.80;1.65;;;16.20;52.30;;;;;;5133895;27;20551;-72
2022/04/12 05:24:28;;;;;;;1.38;1.30;;;16.20;52.30;;;;;;5133409;27;20241;-71
2022/04/12 05:26:53;;;;;;;1.52;1.42;;;16.20;52.30;;;;;;5133030;27;20172;-72
2022/04/12 05:29:19;;;;;;;1.73;1.63;;;16.20;52.30;;;;;;5133351;27;20177;-71
2022/04/12 05:31:44;;;;;;;1.50;1.40;;;16.10;52.20;;;;;;5133427;27;20203;-71
2022/04/12 05:34:10;;;;;;;1.55;1.45;;;16.20;52.30;;;;;;5132537;27;20580;-71
2022/04/12 05:36:35;;;;;;;1.55;1.45;;;16.10;52.20;;;;;;5133515;27;20203;-70
2022/04/12 05:39:00;;;;;;;1.50;1.40;;;16.10;52.20;;;;;;5133251;27;20164;-70
2022/04/12 05:41:26;;;;;;;1.55;1.45;;;16.10;52.30;;;;;;5132291;27;20180;-71
2022/04/12 05:43:51;;;;;;;1.40;1.30;;;16.20;52.20;;;;;;5133535;27;20183;-71
2022/04/12 05:46:17;;;;;;;1.63;1.52;;;16.10;52.20;;;;;;5133057;27;20176;-71
2022/04/12 05:48:42;;;;;;;1.60;1.50;;;16.20;52.20;;;;;;5132843;27;20263;-70
2022/04/12 05:51:08;;;;;;;1.60;1.50;;;16.20;52.20;;;;;;5133038;27;20211;-69
2022/04/12 05:53:37;;;;;;;1.35;1.25;;;16.20;52.20;;;;;;5133052;27;20181;-71
2022/04/12 05:56:02;;;;;;;1.67;1.58;;;16.10;52.20;;;;;;5131808;27;20179;-70
2022/04/12 05:58:30;;;;;;;1.52;1.42;;;16.10;52.20;;;;;;5133015;27;20180;-71
2022/04/12 06:00:55;;;;;;;1.73;1.63;;;16.20;52.20;;;;;;5131922;27;20228;-72
2022/04/12 06:03:21;;;;;;;1.80;1.33;;;16.20;52.20;;;;;;5132798;27;20180;-71
2022/04/12 06:05:49;;;;;;;1.35;1.25;;;16.20;52.20;;;;;;5133120;27;20172;-71
2022/04/12 06:08:14;;;;;;;1.38;1.27;;;16.30;52.30;;;;;;5132298;27;20172;-70
2022/04/12 06:10:40;;;;;;;1.40;1.40;;;16.40;52.20;;;;;;5133141;27;20211;-70
2022/04/12 06:13:05;;;;;;;1.70;1.58;;;16.50;52.10;;;;;;5132802;27;20172;-70
2022/04/12 06:15:31;;;;;;;1.35;1.27;;;16.60;51.90;;;;;;5132068;27;20230;-71
2022/04/12 06:17:56;;;;;;;1.35;1.25;;;16.70;51.70;;;;;;5132984;27;20251;-71
2022/04/12 06:20:22;;;;;;;1.00;1.00;;;16.90;51.50;;;;;;5132374;27;20650;-71
2022/04/12 06:22:47;;;;;;;2.05;1.70;;;17.00;51.40;;;;;;5132338;27;20579;-71
2022/04/12 06:25:19;;;;;;;1.63;1.23;;;17.00;51.30;;;;;;5132519;27;20519;-69
2022/04/12 06:27:51;;;;;;;1.95;1.40;;;17.00;51.20;;;;;;5132979;27;20550;-73
2022/04/12 06:30:21;;;;;;;2.50;1.40;;;17.00;51.20;;;;;;5131707;27;20299;-74
2022/04/12 06:32:47;;;;;;;2.08;1.75;;;17.00;51.40;;;;;;5132577;28;20177;-66
2022/04/12 06:35:12;;;;;;;4.38;1.80;;;17.10;51.70;;;;;;5132384;28;20260;-76
2022/04/12 06:37:42;;;;;;;6.10;2.03;;;17.10;51.70;;;;;;5131727;27;20164;-71
2022/04/12 06:40:11;;;;;;;2.58;1.67;;;17.30;51.90;;;;;;5132539;28;20168;-73
2022/04/12 06:42:37;;;;;;;6.28;2.15;;;17.30;51.70;;;;;;5132569;28;20187;-73
2022/04/12 06:45:03;;;;;;;2.83;1.70;;;17.40;51.60;;;;;;5131049;28;20176;-72
2022/04/12 06:47:29;;;;;;;2.45;1.75;;;17.60;51.50;;;;;;5132082;28;20280;-72
2022/04/12 06:49:54;;;;;;;2.47;1.50;;;17.80;51.10;;;;;;5132380;28;20232;-72
2022/04/12 06:52:22;;;;;;;1.48;1.20;;;18.10;50.80;;;;;;5131471;28;20260;-71
2022/04/12 06:54:48;;;;;;;2.70;1.50;;;18.20;50.50;;;;;;5132632;28;20180;-72
2022/04/12 06:57:14;;;;;;;2.80;1.40;;;18.40;50.30;;;;;;5131143;27;20203;-69
2022/04/12 06:59:39;;;;;;;1.85;1.40;;;18.50;50.00;;;;;;5132321;28;20203;-72
2022/04/12 07:02:05;;;;;;;1.55;1.33;;;18.60;49.80;;;;;;5132224;28;20224;-73
2022/04/12 07:04:31;;;;;;;1.65;1.38;;;18.70;49.60;;;;;;5131377;28;20196;-72
2022/04/12 07:06:56;;;;;;;1.60;1.20;;;18.70;49.60;;;;;;5133948;27;20180;-72
2022/04/12 07:09:27;;;;;;;1.80;1.45;;;18.70;49.80;;;;;;5135815;27;20588;-72
2022/04/12 07:11:56;;;;;;;2.97;1.40;;;18.60;49.80;;;;;;5135656;27;20263;-74
2022/04/12 07:14:21;;;;;;;2.22;1.20;;;18.50;50.10;;;;;;5135865;27;20169;-75
2022/04/12 07:16:47;;;;;;;6.60;1.50;;;18.40;50.40;;;;;;5135958;27;20267;-73
2022/04/12 07:19:13;;;;;;;6.18;1.80;;;18.20;50.60;;;;;;5135021;27;20168;-70
2022/04/12 07:21:39;;;;;;;2.83;1.65;;;18.10;50.90;;;;;;5136207;27;20255;-70
2022/04/12 07:24:08;;;;;;;3.20;1.20;;;18.10;50.80;;;;;;5135902;27;20629;-70
2022/04/12 07:26:37;;;;;;;4.43;1.30;;;18.00;50.90;;;;;;5135385;27;20180;-70
2022/04/12 07:29:02;;;;;;;3.40;1.85;;;17.90;51.10;;;;;;5135734;27;20180;-70
2022/04/12 07:31:28;;;;;;;3.78;1.90;;;17.90;51.20;;;;;;5135607;27;20212;-70
2022/04/12 07:34:02;;;;;;;3.22;1.95;;;17.80;51.30;;;;;;5135041;27;20657;-70
2022/04/12 07:36:31;;;;;;;4.10;1.58;;;17.70;51.40;;;;;;5135629;27;20192;-69
2022/04/12 07:38:56;;;;;;;4.32;1.80;;;17.70;51.50;;;;;;5135993;27;20169;-70
2022/04/12 07:41:22;;;;;;;1.95;1.48;;;17.70;51.60;;;;;;5134713;27;20309;-69
2022/04/12 07:43:49;;;;;;;3.25;1.60;;;17.60;51.60;;;;;;5135359;27;20175;-70
2022/04/12 07:46:14;;;;;;;2.53;1.95;;;17.60;51.60;;;;;;5135113;27;20229;-69
2022/04/12 07:48:40;;;;;;;2.80;1.30;;;17.70;51.80;;;;;;5134560;27;20575;-69
2022/04/12 07:51:06;;;;;;;2.42;1.55;;;17.70;51.80;;;;;;5135068;27;20296;-69
2022/04/12 07:53:32;;;;;;;3.40;1.77;;;17.80;51.80;;;;;;5134351;27;20165;-68
2022/04/12 07:55:57;;;;;;;3.35;1.50;;;17.80;52.30;;;;;;5135188;27;20180;-70
2022/04/12 07:58:25;;;;;;;2.20;1.60;;;17.90;51.70;;;;;;5134705;27;20175;-70
2022/04/12 08:00:51;;;;;;;2.05;1.30;;;17.80;51.50;;;;;;5133983;27;20307;-70
2022/04/12 08:03:20;;;;;;;2.47;1.30;;;17.80;51.50;;;;;;5134839;27;20244;-70
2022/04/12 08:05:46;;;;;;;1.70;1.33;;;17.90;51.70;;;;;;5135123;27;20189;-71
2022/04/12 08:08:12;;;;;;;2.97;1.30;;;17.90;51.70;;;;;;5133821;27;20196;-69
2022/04/12 08:10:40;;;;;;;2.33;1.50;;;17.80;51.70;;;;;;5134618;27;20276;-69
2022/04/12 08:13:05;;;;;;;3.13;1.70;;;17.90;51.80;;;;;;5134605;27;20193;-70
2022/04/12 08:15:31;;;;;;;2.85;1.30;;;17.90;51.70;;;;;;5133755;27;20184;-69
2022/04/12 08:17:57;;;;;;;2.85;1.42;;;18.00;51.70;;;;;;5133826;27;20604;-70
2022/04/12 08:20:22;;;;;;;2.13;1.45;;;18.00;51.60;;;;;;5134370;27;20180;-70
2022/04/12 08:22:48;;;;;;;1.88;1.30;;;18.00;51.60;;;;;;5133949;27;20571;-70
2022/04/12 08:25:14;;;;;;;2.40;1.55;;;18.00;51.60;;;;;;5134387;27;20180;-69
2022/04/12 08:27:39;;;;;;;2.38;1.48;;;18.00;51.60;;;;;;5134454;27;20169;-70
2022/04/12 08:30:07;;;;;;;4.35;1.42;;;18.00;51.60;;;;;;5133798;27;20241;-69
2022/04/12 08:32:36;;;;;;;3.13;2.00;;;18.00;51.70;;;;;;5134490;27;20176;-71
2022/04/12 08:35:02;;;;;;;2.88;1.63;;;18.00;51.70;;;;;;5116439;27;20263;-70
2022/04/12 08:37:27;;;;;;;1.98;1.35;;;18.00;51.80;;;;;;5133512;27;20264;-69
2022/04/12 08:39:53;;;;;;;1.63;1.52;;;18.00;51.90;;;;;;5134376;27;20173;-71
2022/04/12 08:42:18;;;;;;;2.58;1.90;;;17.90;51.80;;;;;;5133864;27;20184;-69
2022/04/12 08:44:45;;;;;;;2.30;1.55;;;17.90;51.90;;;;;;5133819;27;20209;-71
2022/04/12 08:47:10;;;;;;;3.30;1.48;;;17.90;51.90;;;;;;5133939;27;20179;-69
2022/04/12 08:49:38;;;;;;;3.55;1.42;;;17.90;52.00;;;;;;5115004;27;20275;-70
2022/04/12 08:52:03;;;;;;;1.70;1.23;;;17.90;52.00;;;;;;5099379;27;20184;-69
2022/04/12 08:54:29;;;;;;;1.98;1.55;;;18.00;52.00;;;;;;5098439;27;20173;-69
2022/04/12 08:56:57;;;;;;;2.33;1.20;;;17.90;52.00;;;;;;5097933;27;20175;-70
2022/04/12 08:59:25;;;;;;;2.65;1.42;;;18.00;52.00;;;;;;5133736;27;20594;-70
2022/04/12 09:01:50;;;;;;;2.30;1.40;;;18.00;52.00;;;;;;5133847;27;20243;-72
2022/04/12 09:04:16;;;;;;;1.80;1.17;;;18.00;52.00;;;;;;5132825;27;20255;-71
2022/04/12 09:06:51;;;;;;;1.65;1.55;;;18.00;52.00;;;;;;5134019;27;20173;-70
2022/04/12 09:09:18;;;;;;;1.30;1.20;;;17.90;52.00;;;;;;5133329;27;20707;-69
2022/04/12 09:11:57;;;;;;;2.20;1.15;;;18.00;52.10;;;;;;5133293;27;20216;-69
2022/04/12 09:14:23;;;;;;;2.17;1.60;;;18.00;52.10;;;;;;5133634;27;20251;-70
2022/04/12 09:16:48;;;;;;;1.67;1.23;;;18.00;52.10;;;;;;5133635;27;20321;-70
2022/04/12 09:19:14;;;;;;;2.85;1.25;;;18.00;52.00;;;;;;5132565;27;20260;-69
2022/04/12 09:21:46;;;;;;;1.85;1.40;;;18.00;52.20;;;;;;5133710;27;20727;-71
2022/04/12 09:24:21;;;;;;;1.95;1.55;;;18.00;52.20;;;;;;5133461;27;20168;-70
2022/04/12 09:26:56;;;;;;;1.40;1.30;;;18.00;52.20;;;;;;5132331;27;20588;-70
2022/04/12 09:29:29;;;;;;;2.03;1.50;;;18.00;52.20;;;;;;5132446;27;20183;-70
2022/04/12 09:31:58;;;;;;;1.80;1.30;;;18.10;52.10;;;;;;5132167;27;20208;-71
2022/04/12 09:34:24;;;;;;;1.60;1.50;;;18.10;52.20;;;;;;5132501;27;20576;-71
2022/04/12 09:36:49;;;;;;;1.65;1.45;;;18.10;52.10;;;;;;5133125;27;20221;-69
2022/04/12 09:39:19;;;;;;;1.40;1.30;;;18.10;52.10;;;;;;5113532;27;20168;-69
2022/04/12 09:41:47;;;;;;;3.20;1.60;;;18.20;52.20;;;;;;5132918;27;20172;-71
2022/04/12 09:44:16;;;;;;;3.88;1.40;;;18.20;52.20;;;;;;5132446;27;20169;-69
2022/04/12 09:46:44;;;;;;;1.92;1.20;;;18.20;52.10;;;;;;5096879;27;20606;-76
2022/04/12 09:49:10;;;;;;;1.98;1.25;;;18.20;52.90;;;;;;5132298;27;20218;-76
2022/04/12 09:51:38;;;;;;;5.55;1.48;;;18.20;52.30;;;;;;5132530;27;20246;-77
2022/04/12 09:54:08;;;;;;;1.98;1.45;;;18.20;52.30;;;;;;5132159;27;20181;-77
2022/04/12 09:56:34;;;;;;;2.30;1.75;;;18.20;52.40;;;;;;5133166;27;20172;-77
2022/04/12 09:59:01;;;;;;;1.30;1.20;;;18.20;52.40;;;;;;5132859;27;20176;-74
2022/04/12 10:01:27;;;;;;;3.03;1.52;;;18.20;52.40;;;;;;5131709;27;20235;-74
2022/04/12 10:03:56;;;;;;;2.28;1.52;;;18.20;53.00;;;;;;5133237;27;20221;-74
2022/04/12 10:06:23;;;;;;;1.48;1.33;;;18.20;52.40;;;;;;5132550;27;20646;-76
2022/04/12 10:08:56;;;;;;;2.15;1.60;;;18.20;52.40;;;;;;5132247;27;20590;-76
2022/04/12 10:11:22;;;;;;;2.20;1.40;;;18.20;52.40;;;;;;5132203;27;20705;-76
2022/04/12 10:13:48;;;;;;;1.90;1.70;;;18.20;52.50;;;;;;5132753;27;20172;-74
2022/04/12 10:16:15;;;;;;;2.10;1.70;;;18.10;52.40;;;;;;5131959;27;20183;-76
2022/04/12 10:18:40;;;;;;;2.22;1.48;;;18.20;52.50;;;;;;5132668;27;20184;-74
2022/04/12 10:21:06;;;;;;;2.15;1.58;;;18.20;52.40;;;;;;5113389;27;20164;-72
2022/04/12 10:23:32;;;;;;;2.28;1.42;;;18.20;52.30;;;;;;5132642;27;20172;-72
2022/04/12 10:25:58;;;;;;;2.20;1.33;;;18.30;52.30;;;;;;5114159;27;20582;-72
2022/04/12 10:28:24;;;;;;;1.45;1.30;;;18.30;52.30;;;;;;5131398;27;20205;-72
2022/04/12 10:30:50;;;;;;;2.50;1.50;;;18.30;52.20;;;;;;5132521;27;20322;-73
2022/04/12 10:33:15;;;;;;;1.70;1.20;;;18.30;52.20;;;;;;5132371;28;20686;-70
2022/04/12 10:35:51;;;;;;;2.17;1.30;;;18.40;52.20;;;;;;5131987;28;20207;-71
2022/04/12 10:38:18;;;;;;;1.98;1.60;;;18.40;52.20;;;;;;5132069;28;20213;-72
2022/04/12 10:40:44;;;;;;;1.77;1.30;;;18.40;52.20;;;;;;5132433;27;20173;-72
2022/04/12 10:43:13;;;;;;;3.40;1.50;;;18.50;52.30;;;;;;5134926;27;20281;-71
2022/04/12 10:45:46;;;;;;;2.50;1.40;;;18.50;52.30;;;;;;5136941;27;20172;-70
2022/04/12 10:48:18;;;;;;;2.90;1.60;;;18.50;52.20;;;;;;5136678;27;20176;-72
2022/04/12 10:50:45;;;;;;;3.55;1.67;;;18.50;52.30;;;;;;5135967;27;20276;-72
2022/04/12 10:53:11;;;;;;;2.72;1.30;;;18.50;52.40;;;;;;5136442;27;20176;-69
2022/04/12 10:55:41;;;;;;;8.85;1.73;;;18.50;52.50;;;;;;5118189;27;20654;-69
2022/04/12 10:58:14;;;;;;;2.50;1.27;;;18.50;52.40;;;;;;5135712;27;20305;-71
2022/04/12 11:00:42;;;;;;;1.88;1.60;;;18.60;52.30;;;;;;5136495;27;20220;-71
2022/04/12 11:03:08;;;;;;;1.95;1.52;;;18.60;52.30;;;;;;5136020;27;20279;-70
2022/04/12 11:05:37;;;;;;;7.50;1.55;;;18.70;52.30;;;;;;5135854;27;20285;-69
2022/04/12 11:08:14;;;;;;;4.20;2.00;;;18.70;52.20;;;;;;5136302;27;20179;-69
2022/04/12 11:10:52;;;;;;;3.88;1.58;;;18.70;52.20;;;;;;5135738;27;20215;-70
2022/04/12 11:13:20;;;;;;;2.38;1.55;;;18.70;52.20;;;;;;5136000;27;20585;-69
2022/04/12 11:16:00;;;;;;;5.03;1.40;;;18.70;52.30;;;;;;5136085;27;20619;-69
2022/04/12 11:18:45;;;;;;;2.95;1.65;;;18.70;52.20;;;;;;5117929;27;20351;-69
2022/04/12 11:21:10;;;;;;;3.85;1.42;;;18.80;52.20;;;;;;5135850;27;20252;-69
2022/04/12 11:23:51;;;;;;;5.18;1.40;;;18.80;52.30;;;;;;5135956;27;20611;-69
2022/04/12 11:26:37;;;;;;;3.15;1.50;;;18.80;52.30;;;;;;5135062;27;20207;-70
2022/04/12 11:29:22;;;;;;;2.15;1.75;;;18.80;52.30;;;;;;5135579;27;20702;-71
2022/04/12 11:31:53;;;;;;;2.25;1.30;;;18.70;52.30;;;;;;5135077;27;20288;-76
2022/04/12 11:34:19;;;;;;;2.92;1.20;;;18.70;52.50;;;;;;5135281;27;20217;-77
2022/04/12 11:37:05;;;;;;;2.05;1.40;;;18.70;52.50;;;;;;5135477;27;20188;-76
2022/04/12 11:39:31;;;;;;;1.70;1.42;;;18.60;52.60;;;;;;5134994;27;20176;-76
2022/04/12 11:42:04;;;;;;;2.95;1.80;;;18.50;52.70;;;;;;5135787;27;20334;-75
2022/04/12 11:44:30;;;;;;;1.73;1.52;;;18.50;52.70;;;;;;5135359;27;20184;-76
2022/04/12 11:47:01;;;;;;;2.10;1.50;;;18.50;52.80;;;;;;5134957;27;20267;-76
2022/04/12 11:49:31;;;;;;;2.92;1.60;;;18.50;52.70;;;;;;5135272;27;20184;-76
2022/04/12 11:52:00;;;;;;;1.65;1.35;;;18.60;52.70;;;;;;5135457;27;20199;-75
2022/04/12 11:54:33;;;;;;;2.45;1.67;;;18.60;52.60;;;;;;5134582;27;20173;-69
2022/04/12 11:57:09;;;;;;;1.80;1.52;;;18.60;52.60;;;;;;5135360;27;20634;-69
2022/04/12 11:59:45;;;;;;;1.70;1.30;;;18.70;52.40;;;;;;5134471;27;20184;-70
2022/04/12 12:02:11;;;;;;;1.83;1.42;;;18.70;52.40;;;;;;5134559;27;20231;-69
2022/04/12 12:04:37;;;;;;;1.50;1.17;;;18.80;52.30;;;;;;5117046;27;20180;-69
2022/04/12 12:07:07;;;;;;;1.73;1.10;;;18.80;52.20;;;;;;5134373;27;20176;-69
2022/04/12 12:09:34;;;;;;;1.98;1.17;;;18.90;52.20;;;;;;5135176;27;20180;-69
2022/04/12 12:12:01;;;;;;;1.77;1.33;;;18.90;52.10;;;;;;5135184;27;20320;-69
2022/04/12 12:14:27;;;;;;;1.55;1.45;;;18.90;52.20;;;;;;5134093;27;20784;-69
2022/04/12 12:17:20;;;;;;;1.40;1.23;;;19.00;52.30;;;;;;5134822;27;20646;-69
2022/04/12 12:19:46;;;;;;;1.75;1.40;;;19.00;52.30;;;;;;5131782;27;20184;-70
2022/04/12 12:22:13;;;;;;;5.30;1.88;;;19.00;52.30;;;;;;5133797;27;20230;-69
2022/04/12 12:24:57;;;;;;;1.42;1.20;;;19.00;52.40;;;;;;5134814;27;20236;-69
2022/04/12 12:27:31;;;;;;;2.00;1.30;;;19.10;52.30;;;;;;5134707;27;20176;-70
2022/04/12 12:30:10;;;;;;;3.17;1.45;;;19.10;52.20;;;;;;5133889;27;20739;-71
2022/04/12 12:32:39;;;;;;;1.67;1.33;;;19.20;52.20;;;;;;5134768;27;20221;-69
2022/04/12 12:35:07;;;;;;;2.85;1.23;;;19.10;52.20;;;;;;5133865;27;20176;-72
2022/04/12 12:37:33;;;;;;;1.73;1.10;;;19.10;52.30;;;;;;5134527;27;20176;-73
2022/04/12 12:39:58;;;;;;;1.90;1.40;;;19.10;52.30;;;;;;5134645;27;20187;-73
2022/04/12 12:42:24;;;;;;;1.23;1.13;;;19.10;52.30;;;;;;5133535;27;20178;-72
2022/04/12 12:44:49;;;;;;;3.08;1.27;;;19.10;52.30;;;;;;5134553;27;20343;-73
2022/04/12 12:47:15;;;;;;;1.75;1.38;;;19.10;52.30;;;;;;5134138;27;20233;-66
2022/04/12 12:49:41;;;;;;;2.90;1.45;;;19.10;52.50;;;;;;5132648;27;20219;-74